Time;durP1;ratioP1;P1;durP2;ratioP2;P2;SDS_P1;SDS_P2;PMS_P1;PMS_P2;Temp;Humidity;BMP_temperature;BMP_pressure;BME280_temperature;BME280_humidity;BME280_pressure;Samples;Min_cycle;Max_cycle;Signal;HPM_P1;HPM_P2
2020/12/20 00:01:49;;;;;;;8.82;4.15;;;;;;;12.53;67.19;99826.47;6191003;23;20028;-86
2020/12/20 00:04:15;;;;;;;6.15;3.75;;;;;;;12.55;67.06;99823.72;6192766;23;20025;-87
2020/12/20 00:06:43;;;;;;;5.18;4.10;;;;;;;12.55;67.11;99815.78;6191992;23;20024;-86
2020/12/20 00:09:14;;;;;;;6.10;3.97;;;;;;;12.55;67.16;99811.38;6192538;23;20355;-87
2020/12/20 00:11:47;;;;;;;5.85;3.85;;;;;;;12.57;67.10;99808.63;6218352;23;20024;-86
2020/12/20 00:14:26;;;;;;;8.77;4.18;;;;;;;12.58;67.13;99805.91;6217754;23;20470;-85
2020/12/20 00:17:03;;;;;;;6.95;4.10;;;;;;;12.57;66.96;99814.78;6193361;23;20396;-86
2020/12/20 00:19:29;;;;;;;5.80;4.25;;;;;;;12.60;67.07;99811.91;6218382;23;20321;-86
2020/12/20 00:22:01;;;;;;;7.10;4.50;;;;;;;12.58;66.92;99813.81;6193243;23;20451;-86
2020/12/20 00:24:28;;;;;;;7.00;4.70;;;;;;;12.60;67.01;99803.16;6192089;23;20024;-87
2020/12/20 00:26:55;;;;;;;9.30;4.63;;;;;;;12.59;66.90;99807.59;6193944;23;20031;-86
2020/12/20 00:29:22;;;;;;;6.60;4.78;;;;;;;12.60;66.82;99808.44;6218903;23;20320;-87
2020/12/20 00:31:48;;;;;;;6.32;4.05;;;;;;;12.58;66.47;99813.81;6219404;23;20021;-87
2020/12/20 00:34:15;;;;;;;9.65;5.13;;;;;;;12.57;66.52;99814.78;6192785;23;20024;-86
2020/12/20 00:36:48;;;;;;;7.00;4.28;;;;;;;12.51;66.48;99817.78;6192026;23;20021;-86
2020/12/20 00:39:15;;;;;;;8.65;4.50;;;;;;;12.53;66.45;99825.63;6218023;23;20020;-87
2020/12/20 00:41:42;;;;;;;6.72;4.22;;;;;;;12.49;66.62;99824.97;6193639;23;20021;-86
2020/12/20 00:44:09;;;;;;;7.38;4.50;;;;;;;12.43;66.33;99823.56;6218595;23;20043;-86
2020/12/20 00:46:36;;;;;;;6.10;4.30;;;;;;;12.40;66.30;99829.03;6194060;23;20031;-85
2020/12/20 00:49:19;;;;;;;7.88;4.85;;;;;;;12.36;66.32;99825.75;6197846;23;20028;-86
2020/12/20 00:51:45;;;;;;;6.28;4.85;;;;;;;12.32;66.21;99828.69;6218089;23;20025;-86
2020/12/20 00:54:13;;;;;;;8.60;4.70;;;;;;;12.28;66.37;99835.09;6191987;23;20027;-85
2020/12/20 00:56:39;;;;;;;6.28;4.13;;;;;;;12.23;66.29;99817.75;6192600;23;20020;-86
2020/12/20 00:59:05;;;;;;;6.45;4.45;;;;;;;12.21;66.36;99824.94;6218461;23;20027;-88
2020/12/20 01:01:31;;;;;;;5.72;4.30;;;;;;;12.18;66.47;99824.28;6193029;23;20020;-86
2020/12/20 01:03:57;;;;;;;7.25;4.60;;;;;;;12.15;66.58;99819.19;6218324;23;20025;-85
2020/12/20 01:06:24;;;;;;;8.52;4.57;;;;;;;12.11;66.51;99827.31;6219396;23;20028;-86
2020/12/20 01:08:51;;;;;;;5.43;4.20;;;;;;;12.07;66.57;99823.16;6219690;23;20024;-86
2020/12/20 01:11:18;;;;;;;8.15;4.70;;;;;;;12.04;66.47;99831.22;6218707;23;20352;-87
2020/12/20 01:13:48;;;;;;;8.70;4.38;;;;;;;12.04;66.87;99835.66;6191749;23;20055;-85
2020/12/20 01:16:18;;;;;;;5.60;4.22;;;;;;;12.02;66.95;99838.41;6191744;23;20033;-86
2020/12/20 01:18:45;;;;;;;6.13;4.32;;;;;;;12.01;67.13;99831.44;6220127;23;20020;-86
2020/12/20 01:21:13;;;;;;;6.25;4.70;;;;;;;12.01;67.13;99843.75;6193439;23;20079;-86
2020/12/20 01:23:39;;;;;;;11.95;4.63;;;;;;;12.01;67.30;99828.78;6192512;23;20036;-86
2020/12/20 01:26:06;;;;;;;7.43;4.47;;;;;;;12.02;67.20;99824.34;6219058;23;20028;-87
2020/12/20 01:28:34;;;;;;;8.32;4.72;;;;;;;12.03;67.29;99826.06;6192871;23;20348;-87
2020/12/20 01:31:03;;;;;;;6.18;4.28;;;;;;;12.05;67.22;99827.69;6218606;23;20078;-86
2020/12/20 01:33:29;;;;;;;4.40;3.65;;;;;;;12.07;67.00;99827.59;6191303;23;20031;-85
2020/12/20 01:35:55;;;;;;;4.55;3.72;;;;;;;12.09;67.05;99829.19;6218343;23;20043;-87
2020/12/20 01:38:21;;;;;;;4.82;4.28;;;;;;;12.10;67.25;99825.59;6218880;23;20016;-85
2020/12/20 01:40:53;;;;;;;7.80;3.92;;;;;;;12.10;66.92;99820.34;6191739;23;20463;-86
2020/12/20 01:43:19;;;;;;;10.02;4.15;;;;;;;12.12;66.92;99813.16;6218139;23;20020;-87
2020/12/20 01:45:45;;;;;;;6.68;3.85;;;;;;;12.15;66.79;99816.56;6192378;23;20020;-86
2020/12/20 01:48:11;;;;;;;8.68;4.55;;;;;;;12.14;67.10;99815.69;6219683;23;20020;-86
2020/12/20 01:50:39;;;;;;;7.50;4.93;;;;;;;12.16;66.99;99818.25;6218553;23;20031;-86
2020/12/20 01:53:06;;;;;;;5.90;4.60;;;;;;;12.17;66.97;99830.50;6191059;23;20027;-86
2020/12/20 01:55:32;;;;;;;6.88;4.75;;;;;;;12.18;66.88;99832.22;6216697;23;20025;-86
2020/12/20 01:57:59;;;;;;;8.98;4.95;;;;;;;12.20;66.89;99817.13;6221109;23;20395;-86
2020/12/20 02:00:25;;;;;;;6.85;4.57;;;;;;;12.21;67.02;99816.16;6190809;23;20033;-87
2020/12/20 02:02:51;;;;;;;6.35;4.57;;;;;;;12.20;66.85;99817.97;6218968;23;20378;-86
2020/12/20 02:05:17;;;;;;;7.13;4.57;;;;;;;12.21;66.79;99819.66;6219563;23;20021;-86
2020/12/20 02:07:47;;;;;;;7.53;4.50;;;;;;;12.21;66.82;99822.31;6217771;23;20044;-86
2020/12/20 02:10:16;;;;;;;12.43;5.18;;;;;;;12.20;66.52;99820.63;6219869;23;20043;-86
2020/12/20 02:12:43;;;;;;;6.70;4.20;;;;;;;12.23;66.67;99822.22;6191222;23;20359;-86
2020/12/20 02:15:13;;;;;;;8.50;4.53;;;;;;;12.22;66.69;99821.34;6192183;23;20021;-87
2020/12/20 02:17:39;;;;;;;7.95;4.70;;;;;;;12.22;66.46;99820.50;6218790;23;20020;-86
2020/12/20 02:20:15;;;;;;;6.95;4.63;;;;;;;12.21;66.56;99819.66;6219901;23;20094;-85
2020/12/20 02:22:43;;;;;;;7.20;4.35;;;;;;;12.19;66.53;99820.69;6191750;23;20020;-85
2020/12/20 02:25:09;;;;;;;6.22;4.03;;;;;;;12.17;66.50;99823.44;6216775;23;20343;-87
2020/12/20 02:27:35;;;;;;;6.18;4.30;;;;;;;12.18;66.24;99821.66;6191117;23;20020;-86
2020/12/20 02:30:02;;;;;;;6.72;4.13;;;;;;;12.15;66.60;99821.84;6191757;23;20044;-86
2020/12/20 02:32:29;;;;;;;8.70;4.35;;;;;;;12.14;66.52;99822.78;6191904;23;20024;-86
2020/12/20 02:34:55;;;;;;;7.03;4.25;;;;;;;12.13;66.57;99821.94;6192628;23;20363;-86
2020/12/20 02:37:21;;;;;;;7.50;4.88;;;;;;;12.12;66.54;99821.06;6217217;23;20024;-86
2020/12/20 02:39:47;;;;;;;7.13;4.60;;;;;;;12.10;66.53;99816.84;6191571;23;20024;-87
2020/12/20 02:42:14;;;;;;;8.25;4.47;;;;;;;12.10;66.68;99808.91;6192354;23;20055;-86
2020/12/20 02:44:40;;;;;;;8.20;4.68;;;;;;;12.10;66.65;99812.41;6218097;23;20359;-86
2020/12/20 02:47:09;;;;;;;6.78;4.28;;;;;;;12.09;66.68;99810.72;6190284;23;20025;-86
2020/12/20 02:49:36;;;;;;;8.57;3.95;;;;;;;12.11;66.76;99814.09;6217286;23;20028;-85
2020/12/20 02:52:03;;;;;;;7.80;4.55;;;;;;;12.14;66.56;99812.22;6216895;23;20021;-87
2020/12/20 02:54:29;;;;;;;8.57;5.15;;;;;;;12.14;66.59;99806.97;6191678;23;20028;-86
2020/12/20 02:56:55;;;;;;;5.80;4.50;;;;;;;12.15;66.70;99806.00;6191076;23;20356;-87
2020/12/20 02:59:21;;;;;;;5.50;4.07;;;;;;;12.14;66.52;99812.22;6218237;23;20325;-86
2020/12/20 03:01:47;;;;;;;11.75;4.65;;;;;;;12.14;66.57;99813.06;6191177;23;20025;-86
2020/12/20 03:04:13;;;;;;;5.38;4.10;;;;;;;12.13;66.62;99811.38;6190434;23;20024;-87
2020/12/20 03:06:40;;;;;;;6.22;4.45;;;;;;;12.12;66.48;99809.69;6218359;23;20032;-86
2020/12/20 03:09:06;;;;;;;5.78;4.45;;;;;;;12.11;66.46;99818.53;6189106;23;20074;-86
2020/12/20 03:11:33;;;;;;;7.72;4.35;;;;;;;12.07;66.37;99817.88;6216343;23;20483;-86
2020/12/20 03:13:59;;;;;;;6.25;4.15;;;;;;;12.05;66.46;99814.50;6190377;23;20023;-86
2020/12/20 03:16:25;;;;;;;8.88;4.05;;;;;;;12.04;66.48;99819.84;6217016;23;20024;-85
2020/12/20 03:18:52;;;;;;;6.05;4.03;;;;;;;12.03;66.62;99810.22;6217858;23;20023;-85
2020/12/20 03:21:20;;;;;;;8.73;4.03;;;;;;;12.01;66.70;99820.88;6190769;23;20027;-86
2020/12/20 03:23:46;;;;;;;5.50;3.80;;;;;;;12.01;66.66;99812.97;6217996;23;20024;-86
2020/12/20 03:26:12;;;;;;;5.80;3.90;;;;;;;12.01;66.66;99820.03;6190458;23;20078;-86
2020/12/20 03:28:38;;;;;;;6.28;3.95;;;;;;;12.01;66.59;99826.16;6218396;23;20390;-86
2020/12/20 03:31:04;;;;;;;7.07;3.65;;;;;;;12.00;66.59;99827.06;6191881;23;20035;-86
2020/12/20 03:33:30;;;;;;;9.63;4.25;;;;;;;11.98;66.61;99828.97;6216941;23;20020;-86
2020/12/20 03:35:56;;;;;;;6.65;4.00;;;;;;;11.98;66.69;99828.97;6217747;23;20028;-86
2020/12/20 03:38:22;;;;;;;5.28;4.28;;;;;;;11.99;66.63;99830.66;6191380;23;20332;-86
2020/12/20 03:40:49;;;;;;;6.22;4.32;;;;;;;11.98;66.64;99831.63;6193581;23;20031;-86
2020/12/20 03:43:15;;;;;;;4.93;3.85;;;;;;;11.98;66.83;99834.25;6219263;23;20028;-86
2020/12/20 03:45:41;;;;;;;5.65;4.10;;;;;;;11.95;66.69;99830.00;6193471;23;20455;-87
2020/12/20 03:48:07;;;;;;;5.78;3.92;;;;;;;11.96;66.53;99836.16;6192092;23;20017;-86
2020/12/20 03:50:34;;;;;;;6.65;3.97;;;;;;;11.95;66.69;99834.44;6195603;23;20031;-87
2020/12/20 03:53:00;;;;;;;6.63;4.22;;;;;;;11.93;66.44;99823.97;6194752;23;20020;-86
2020/12/20 03:55:26;;;;;;;5.63;3.80;;;;;;;11.92;66.21;99824.09;6218537;23;20021;-87
2020/12/20 03:57:52;;;;;;;5.22;3.63;;;;;;;11.89;66.08;99816.34;6218577;23;20029;-87
2020/12/20 04:00:19;;;;;;;4.72;3.33;;;;;;;11.85;66.22;99818.34;6219503;23;20475;-86
2020/12/20 04:02:47;;;;;;;8.30;3.95;;;;;;;11.81;66.08;99812.38;6220571;23;20030;-87
2020/12/20 04:05:16;;;;;;;6.63;4.63;;;;;;;11.76;65.98;99801.28;6193873;23;20031;-86
2020/12/20 04:07:43;;;;;;;8.15;4.28;;;;;;;11.72;65.90;99807.69;6192497;23;20028;-87
2020/12/20 04:10:09;;;;;;;6.15;4.30;;;;;;;11.66;65.99;99808.91;6191902;23;20039;-87
2020/12/20 04:12:36;;;;;;;7.97;4.50;;;;;;;11.62;66.02;99825.84;6217435;23;20355;-87
2020/12/20 04:15:04;;;;;;;5.30;4.25;;;;;;;11.56;65.93;99827.06;6190908;23;20025;-87
2020/12/20 04:17:30;;;;;;;6.82;4.03;;;;;;;11.53;66.07;99831.69;6217162;23;20025;-87
2020/12/20 04:19:56;;;;;;;5.78;4.22;;;;;;;11.47;66.20;99817.06;6160985;23;20475;-87
2020/12/20 04:22:22;;;;;;;7.05;4.53;;;;;;;11.42;66.41;99821.78;6161064;23;20374;-87
2020/12/20 04:24:48;;;;;;;4.63;3.80;;;;;;;11.39;66.41;99814.03;6161289;23;20021;-87
2020/12/20 04:27:14;;;;;;;10.50;4.35;;;;;;;11.36;66.42;99811.63;6187406;23;20028;-87
2020/12/20 04:29:40;;;;;;;6.60;4.55;;;;;;;11.32;66.49;99816.19;6161191;23;20025;-87
2020/12/20 04:32:07;;;;;;;8.40;4.70;;;;;;;11.30;66.79;99816.31;6160568;23;20575;-87
2020/12/20 04:34:33;;;;;;;5.32;4.05;;;;;;;11.28;66.83;99810.28;6160824;23;20464;-87
2020/12/20 04:36:59;;;;;;;6.75;4.60;;;;;;;11.27;66.83;99821.75;6186794;23;20067;-87
2020/12/20 04:39:25;;;;;;;7.82;4.78;;;;;;;11.26;66.95;99811.31;6186750;23;20067;-87
2020/12/20 04:41:51;;;;;;;7.50;4.93;;;;;;;11.26;66.95;99813.94;6161028;23;20025;-87
2020/12/20 04:44:17;;;;;;;6.93;4.25;;;;;;;11.24;67.21;99814.03;6161073;23;20021;-87
2020/12/20 04:46:45;;;;;;;8.00;5.00;;;;;;;11.25;67.35;99818.34;6187143;23;20057;-87
2020/12/20 04:49:13;;;;;;;8.25;4.82;;;;;;;11.24;67.20;99827.19;6160425;23;20021;-87
2020/12/20 04:51:50;;;;;;;9.00;5.28;;;;;;;11.24;67.22;99821.94;6163293;23;20021;-87
2020/12/20 04:54:17;;;;;;;7.53;4.72;;;;;;;11.24;67.27;99821.06;6160666;23;20510;-87
2020/12/20 04:56:43;;;;;;;6.82;5.15;;;;;;;11.24;67.26;99829.84;6160661;23;20025;-87
2020/12/20 04:59:10;;;;;;;8.75;5.50;;;;;;;11.23;67.22;99833.41;6160817;23;20032;-86
2020/12/20 05:01:36;;;;;;;10.27;5.80;;;;;;;11.21;67.03;99824.72;6160982;23;20024;-86
2020/12/20 05:04:02;;;;;;;7.05;4.82;;;;;;;11.20;67.06;99833.59;6160385;23;20024;-87
2020/12/20 05:06:29;;;;;;;10.95;5.60;;;;;;;11.16;67.07;99827.66;6186600;23;20033;-86
2020/12/20 05:09:03;;;;;;;9.45;5.05;;;;;;;11.12;67.09;99823.50;6160585;23;20021;-86
2020/12/20 05:11:38;;;;;;;7.35;5.00;;;;;;;11.10;66.98;99824.53;6160507;23;20025;-86
2020/12/20 05:14:05;;;;;;;6.68;4.95;;;;;;;11.08;66.99;99828.09;6160582;23;20356;-87
2020/12/20 05:16:36;;;;;;;7.47;5.63;;;;;;;11.06;67.24;99824.69;6160920;23;20028;-87
2020/12/20 05:19:04;;;;;;;11.00;5.57;;;;;;;11.04;67.36;99823.09;6186765;23;20021;-86
2020/12/20 05:21:31;;;;;;;6.80;5.03;;;;;;;11.03;67.39;99827.50;6186367;23;20032;-87
2020/12/20 05:23:59;;;;;;;7.03;5.47;;;;;;;11.01;67.53;99818.84;6160325;23;20025;-87
2020/12/20 05:26:27;;;;;;;10.50;5.57;;;;;;;10.99;67.36;99822.53;6186443;23;20025;-87
2020/12/20 05:29:05;;;;;;;10.23;5.07;;;;;;;10.98;67.32;99832.19;6160159;23;20025;-87
2020/12/20 05:31:32;;;;;;;8.52;5.30;;;;;;;10.96;67.35;99834.09;6160646;23;20020;-87
2020/12/20 05:33:58;;;;;;;8.23;5.47;;;;;;;10.94;67.32;99828.03;6160368;23;20036;-86
2020/12/20 05:36:26;;;;;;;8.05;5.70;;;;;;;10.92;67.54;99836.03;6186751;23;20028;-87
2020/12/20 05:38:52;;;;;;;12.48;5.90;;;;;;;10.91;67.53;99828.22;6160489;23;20017;-86
2020/12/20 05:41:31;;;;;;;8.50;5.25;;;;;;;10.86;67.47;99825.84;6160633;23;20025;-87
2020/12/20 05:44:21;;;;;;;6.38;4.95;;;;;;;10.85;67.61;99825.94;6186365;23;20060;-86
2020/12/20 05:46:48;;;;;;;6.18;4.80;;;;;;;10.89;67.54;99822.19;6186325;23;20025;-87
2020/12/20 05:49:22;;;;;;;8.27;5.15;;;;;;;10.87;67.96;99827.53;6160452;23;20021;-87
2020/12/20 05:52:05;;;;;;;6.55;5.07;;;;;;;10.85;67.84;99829.44;6160405;23;20028;-86
2020/12/20 05:54:33;;;;;;;7.00;5.60;;;;;;;10.87;67.70;99832.81;6186528;23;20389;-86
2020/12/20 05:57:08;;;;;;;11.48;5.53;;;;;;;10.85;67.92;99826.81;6186536;23;20028;-87
2020/12/20 05:59:35;;;;;;;7.57;5.20;;;;;;;10.88;67.77;99825.78;6185985;23;20028;-87
2020/12/20 06:02:05;;;;;;;7.68;5.55;;;;;;;10.86;67.89;99832.91;6186090;23;20024;-87
2020/12/20 06:04:33;;;;;;;10.65;5.75;;;;;;;10.87;67.94;99830.19;6160074;23;20487;-86
2020/12/20 06:07:00;;;;;;;10.40;5.95;;;;;;;10.87;67.98;99832.81;6186336;23;20025;-86
2020/12/20 06:09:28;;;;;;;8.75;5.63;;;;;;;10.86;67.87;99835.53;6185951;23;20078;-87
2020/12/20 06:11:57;;;;;;;7.88;5.78;;;;;;;10.85;67.79;99833.84;6160329;23;20060;-87
2020/12/20 06:14:28;;;;;;;10.25;5.55;;;;;;;10.81;67.78;99831.38;6160260;23;20021;-86
2020/12/20 06:17:17;;;;;;;8.35;5.68;;;;;;;10.78;67.97;99831.56;6186021;23;20017;-86
2020/12/20 06:19:49;;;;;;;7.38;5.28;;;;;;;10.82;67.95;99841.00;6186234;23;20021;-85
2020/12/20 06:22:23;;;;;;;8.05;5.55;;;;;;;10.78;67.90;99844.72;6159569;23;20028;-86
2020/12/20 06:24:52;;;;;;;9.98;6.15;;;;;;;10.78;67.79;99850.00;6186334;23;20391;-86
2020/12/20 06:27:20;;;;;;;8.32;5.50;;;;;;;10.76;67.69;99854.47;6159793;23;20029;-89
2020/12/20 06:29:50;;;;;;;6.47;4.93;;;;;;;10.74;67.93;99852.88;6186267;23;20028;-90
2020/12/20 06:32:21;;;;;;;7.90;5.95;;;;;;;10.71;68.25;99848.63;6186215;23;20044;-86
2020/12/20 06:34:49;;;;;;;9.93;5.78;;;;;;;10.72;67.93;99845.06;6160037;23;20032;-86
2020/12/20 06:37:17;;;;;;;9.27;5.40;;;;;;;10.69;68.22;99845.22;6185818;23;20025;-86
2020/12/20 06:39:45;;;;;;;10.13;6.03;;;;;;;10.68;68.12;99840.91;6160087;23;20348;-86
2020/12/20 06:42:11;;;;;;;7.57;5.90;;;;;;;10.68;68.29;99843.53;6159385;23;20028;-86
2020/12/20 06:44:38;;;;;;;8.10;5.35;;;;;;;10.68;68.22;99849.66;6159560;23;20029;-86
2020/12/20 06:47:04;;;;;;;8.18;6.13;;;;;;;10.69;68.50;99850.50;6185771;23;20492;-86
2020/12/20 06:49:35;;;;;;;9.63;5.82;;;;;;;10.69;68.58;99853.97;6159866;23;20021;-86
2020/12/20 06:52:20;;;;;;;10.43;6.25;;;;;;;10.67;68.61;99850.59;6185904;23;20348;-87
2020/12/20 06:55:11;;;;;;;8.40;6.30;;;;;;;10.70;68.57;99852.22;6160025;23;20072;-86
2020/12/20 06:58:03;;;;;;;7.78;6.35;;;;;;;10.71;68.54;99845.16;6159800;23;20025;-87
2020/12/20 07:00:52;;;;;;;7.80;6.05;;;;;;;10.73;68.41;99852.00;6152018;23;20482;-86
2020/12/20 07:03:24;;;;;;;6.57;5.07;;;;;;;10.76;68.58;99861.56;6159786;23;20352;-86
2020/12/20 07:05:56;;;;;;;8.15;5.97;;;;;;;10.76;68.63;99861.56;6185965;23;20032;-87
2020/12/20 07:08:22;;;;;;;8.98;5.72;;;;;;;10.77;68.45;99863.25;6185722;23;20039;-88
2020/12/20 07:10:52;;;;;;;7.75;6.10;;;;;;;10.77;68.51;99873.78;6186115;23;20024;-86
2020/12/20 07:13:41;;;;;;;8.75;5.75;;;;;;;10.76;68.59;99872.91;6186633;23;20029;-88
2020/12/20 07:16:15;;;;;;;7.55;5.55;;;;;;;10.78;68.47;99871.06;6188042;23;20033;-87
2020/12/20 07:19:01;;;;;;;9.85;6.90;;;;;;;10.81;68.33;99881.41;6161637;23;20348;-87
2020/12/20 07:21:58;;;;;;;10.73;5.57;;;;;;;10.77;68.50;99882.50;6162054;23;20424;-86
2020/12/20 07:24:26;;;;;;;8.35;5.43;;;;;;;10.82;68.30;99883.13;6187714;23;20025;-88
2020/12/20 07:26:56;;;;;;;7.93;6.18;;;;;;;10.84;68.51;99887.44;6162003;23;20024;-87
2020/12/20 07:29:24;;;;;;;9.23;6.13;;;;;;;10.81;68.29;99881.41;6161896;23;20104;-87
2020/12/20 07:31:54;;;;;;;11.50;6.32;;;;;;;10.81;68.53;99886.66;6161878;23;20021;-87
2020/12/20 07:34:20;;;;;;;8.23;6.13;;;;;;;10.84;68.48;99890.06;6161417;23;20487;-87
2020/12/20 07:36:46;;;;;;;8.10;6.75;;;;;;;10.85;68.42;99890.00;6161911;23;20025;-87
2020/12/20 07:39:13;;;;;;;9.60;6.75;;;;;;;10.85;68.51;99890.00;6161358;23;20017;-86
2020/12/20 07:41:40;;;;;;;8.60;6.35;;;;;;;10.85;68.54;99894.41;6187778;23;20035;-87
2020/12/20 07:44:08;;;;;;;10.00;6.60;;;;;;;10.84;68.67;99888.28;6161804;23;20025;-87
2020/12/20 07:46:35;;;;;;;9.32;6.55;;;;;;;10.84;68.62;99893.53;6161625;23;20028;-87
2020/12/20 07:49:08;;;;;;;8.02;5.90;;;;;;;10.85;68.57;99897.03;6161457;23;20017;-86
2020/12/20 07:51:34;;;;;;;;;;;;;;;10.87;68.50;99901.28;6162347;23;20025;-86
2020/12/20 07:54:05;;;;;;;6.95;5.63;;;;;;;10.91;68.53;99892.28;6187510;23;19916;-88
2020/12/20 07:56:34;;;;;;;10.35;5.65;;;;;;;10.91;68.53;99894.91;6161880;23;20321;-88
2020/12/20 07:59:10;;;;;;;9.00;6.25;;;;;;;10.92;68.54;99893.97;6161551;23;20040;-88
2020/12/20 08:01:38;;;;;;;13.63;6.45;;;;;;;10.94;68.73;99893.88;6187957;23;20028;-88
2020/12/20 08:04:18;;;;;;;7.45;5.80;;;;;;;10.97;68.64;99895.50;6187516;23;20021;-87
2020/12/20 08:06:46;;;;;;;10.32;6.15;;;;;;;10.97;68.75;99892.84;6161746;23;20076;-87
2020/12/20 08:09:15;;;;;;;8.18;6.22;;;;;;;10.99;68.69;99905.00;6187097;23;20025;-88
2020/12/20 08:11:42;;;;;;;8.40;6.10;;;;;;;11.01;68.93;99899.66;6162074;23;20028;-88
2020/12/20 08:14:10;;;;;;;9.18;6.40;;;;;;;11.02;68.93;99896.06;6187475;23;20348;-88
2020/12/20 08:16:41;;;;;;;8.57;6.53;;;;;;;11.04;68.69;99899.47;6187658;23;20025;-88
2020/12/20 08:19:20;;;;;;;10.48;5.97;;;;;;;11.06;68.80;99908.13;6161094;23;20021;-88
2020/12/20 08:21:52;;;;;;;9.23;6.88;;;;;;;11.05;68.84;99909.06;6161474;23;20025;-88
2020/12/20 08:24:20;;;;;;;9.32;7.25;;;;;;;11.08;68.83;99914.19;6186959;23;20460;-88
2020/12/20 08:26:47;;;;;;;10.70;7.03;;;;;;;11.08;68.80;99911.53;6161081;23;20017;-88
2020/12/20 08:29:16;;;;;;;9.60;7.07;;;;;;;11.08;68.80;99914.19;6160898;23;20024;-88
2020/12/20 08:31:44;;;;;;;10.25;6.70;;;;;;;11.10;68.99;99916.72;6161346;23;20464;-87
2020/12/20 08:34:16;;;;;;;8.18;6.25;;;;;;;11.10;68.83;99922.00;6161252;23;20044;-87
2020/12/20 08:36:51;;;;;;;9.32;6.53;;;;;;;11.10;68.77;99917.56;6187554;23;20028;-88
2020/12/20 08:39:22;;;;;;;9.27;6.68;;;;;;;11.13;68.75;99916.53;6187322;23;20021;-88
2020/12/20 08:42:19;;;;;;;8.68;6.53;;;;;;;11.10;68.71;99920.19;6161000;23;20025;-88
2020/12/20 08:44:47;;;;;;;11.77;6.80;;;;;;;11.14;68.64;99915.63;6187278;23;20025;-88
2020/12/20 08:47:18;;;;;;;9.32;6.78;;;;;;;11.13;68.49;99912.13;6161099;23;20032;-88
2020/12/20 08:49:58;;;;;;;9.68;7.07;;;;;;;11.10;68.65;99917.56;6160894;23;20028;-88
2020/12/20 08:52:32;;;;;;;9.30;6.97;;;;;;;11.12;68.68;99920.13;6160939;23;20021;-88
2020/12/20 08:55:00;;;;;;;9.10;7.22;;;;;;;11.16;68.77;99924.28;6161119;23;20025;-88
2020/12/20 08:57:36;;;;;;;8.25;7.15;;;;;;;11.13;68.90;99929.72;6161105;23;20021;-88
2020/12/20 09:00:17;;;;;;;12.23;6.90;;;;;;;11.15;68.71;99927.84;6186917;23;20017;-88
2020/12/20 09:02:44;;;;;;;10.80;6.72;;;;;;;11.18;68.75;99930.31;6160990;23;20413;-88
2020/12/20 09:05:15;;;;;;;10.38;6.85;;;;;;;11.16;68.80;99924.28;6160747;23;20025;-88
2020/12/20 09:07:47;;;;;;;8.98;7.07;;;;;;;11.19;69.24;99930.25;6186881;23;20024;-87
2020/12/20 09:10:18;;;;;;;8.38;6.45;;;;;;;11.21;69.04;99923.09;6160732;23;20027;-87
2020/12/20 09:12:58;;;;;;;9.30;7.03;;;;;;;11.22;69.00;99923.94;6160856;23;20021;-86
2020/12/20 09:15:30;;;;;;;7.45;6.00;;;;;;;11.30;69.39;99924.34;6187015;23;20057;-87
2020/12/20 09:17:58;;;;;;;7.33;6.07;;;;;;;11.36;69.37;99932.84;6160478;23;20025;-87
2020/12/20 09:20:27;;;;;;;9.85;6.63;;;;;;;11.41;69.47;99933.41;6186878;23;20251;-87
2020/12/20 09:22:58;;;;;;;8.30;6.43;;;;;;;11.46;69.28;99939.28;6160770;23;20028;-87
2020/12/20 09:25:38;;;;;;;9.20;7.25;;;;;;;11.52;69.19;99943.34;6160966;23;20028;-87
2020/12/20 09:28:06;;;;;;;9.85;7.07;;;;;;;11.60;68.82;99941.13;6186990;23;20017;-87
2020/12/20 09:30:37;;;;;;;10.35;6.90;;;;;;;11.63;68.82;99950.63;6186758;23;20021;-87
2020/12/20 09:33:30;;;;;;;8.65;6.85;;;;;;;11.65;68.64;99948.72;6186158;23;20490;-87
2020/12/20 09:35:56;;;;;;;9.52;7.40;;;;;;;11.72;68.89;99944.81;6186152;23;20072;-87
2020/12/20 09:38:25;;;;;;;9.15;7.40;;;;;;;11.75;68.90;99943.78;6160072;23;20025;-87
2020/12/20 09:40:57;;;;;;;9.15;6.97;;;;;;;11.76;68.72;99948.97;6160771;23;20021;-87
2020/12/20 09:43:23;;;;;;;10.50;6.72;;;;;;;11.81;68.68;99946.06;6160267;23;20028;-86
2020/12/20 09:45:49;;;;;;;10.10;7.22;;;;;;;11.85;68.71;99950.22;6160523;23;20088;-87
2020/12/20 09:48:15;;;;;;;10.15;7.82;;;;;;;11.85;68.52;99948.41;6160052;23;20468;-86
2020/12/20 09:50:42;;;;;;;11.18;7.28;;;;;;;11.88;68.31;99954.47;6160639;23;20021;-87
2020/12/20 09:53:08;;;;;;;11.48;7.20;;;;;;;11.88;68.31;99960.56;6160255;23;20028;-87
2020/12/20 09:55:34;;;;;;;10.10;7.15;;;;;;;11.88;68.30;99960.56;6186571;23;20021;-86
2020/12/20 09:58:00;;;;;;;10.82;7.80;;;;;;;11.89;68.36;99961.44;6159953;23;20032;-87
2020/12/20 10:00:26;;;;;;;9.40;7.60;;;;;;;11.89;68.46;99953.53;6160407;23;20048;-87
2020/12/20 10:02:53;;;;;;;10.43;7.40;;;;;;;11.92;68.59;99959.44;6159894;23;20017;-86
2020/12/20 10:05:19;;;;;;;8.60;7.22;;;;;;;11.96;68.71;99962.78;6186027;23;20478;-86
2020/12/20 10:07:45;;;;;;;9.32;7.10;;;;;;;11.98;68.73;99961.75;6160143;23;20021;-86
2020/12/20 10:10:24;;;;;;;10.85;7.35;;;;;;;12.00;68.22;99964.25;6179042;23;20028;-86
2020/12/20 10:12:52;;;;;;;9.48;7.00;;;;;;;12.05;68.59;99967.53;6190470;23;20149;-86
2020/12/20 10:15:18;;;;;;;9.80;7.25;;;;;;;12.09;68.37;99963.78;6192358;23;20354;-86
2020/12/20 10:17:45;;;;;;;10.95;8.00;;;;;;;12.10;68.14;99970.72;6188451;23;20025;-86
2020/12/20 10:20:12;;;;;;;8.90;7.00;;;;;;;12.11;68.07;99964.50;6185809;23;20343;-86
2020/12/20 10:22:38;;;;;;;9.73;7.57;;;;;;;12.10;68.09;99954.91;6187147;23;20459;-87
2020/12/20 10:25:15;;;;;;;10.23;7.45;;;;;;;12.11;68.24;99961.88;6188444;23;20029;-86
2020/12/20 10:27:42;;;;;;;11.63;8.00;;;;;;;12.10;68.14;99954.91;6187153;23;20021;-86
2020/12/20 10:30:08;;;;;;;10.70;7.55;;;;;;;12.11;67.83;99961.00;6185574;23;20013;-86
2020/12/20 10:32:34;;;;;;;9.93;7.32;;;;;;;12.11;68.10;99950.47;6186858;23;20021;-86
2020/12/20 10:35:00;;;;;;;10.82;6.97;;;;;;;12.09;68.21;99953.22;6187271;23;20021;-87
2020/12/20 10:37:26;;;;;;;13.20;7.65;;;;;;;12.10;68.30;99954.03;6191296;23;20021;-87
2020/12/20 10:39:53;;;;;;;9.70;7.22;;;;;;;12.09;68.48;99950.56;6189726;23;20021;-86
2020/12/20 10:42:19;;;;;;;11.07;7.45;;;;;;;12.11;68.30;99946.03;6189339;23;20021;-87
2020/12/20 10:44:45;;;;;;;10.43;7.90;;;;;;;12.11;68.17;99955.72;6191422;23;20475;-86
2020/12/20 10:47:11;;;;;;;9.73;7.18;;;;;;;12.12;68.43;99960.91;6187172;23;20017;-87
2020/12/20 10:49:38;;;;;;;10.38;6.60;;;;;;;12.14;68.58;99950.28;6186137;23;20017;-87
2020/12/20 10:52:04;;;;;;;9.02;7.30;;;;;;;12.19;68.63;99950.00;6189074;23;20029;-87
2020/12/20 10:54:32;;;;;;;11.20;7.43;;;;;;;12.24;68.83;99937.38;6189782;23;20067;-86
2020/12/20 10:57:01;;;;;;;10.38;7.95;;;;;;;12.29;68.78;99943.22;6186965;23;20355;-86
2020/12/20 10:59:32;;;;;;;12.00;7.50;;;;;;;12.35;68.78;99932.31;6187449;23;20027;-87
2020/12/20 11:02:00;;;;;;;10.60;8.20;;;;;;;12.41;68.22;99936.31;6189153;23;20017;-86
2020/12/20 11:04:26;;;;;;;10.02;7.47;;;;;;;12.46;68.10;99938.69;6187878;23;20021;-86
2020/12/20 11:07:01;;;;;;;10.45;7.30;;;;;;;12.47;67.96;99937.75;6189676;23;20456;-86
2020/12/20 11:09:28;;;;;;;8.80;6.90;;;;;;;12.51;68.18;99939.25;6205727;23;20017;-86
2020/12/20 11:11:56;;;;;;;9.98;7.43;;;;;;;12.53;68.23;99933.88;6218644;23;20043;-86
2020/12/20 11:14:23;;;;;;;9.63;6.72;;;;;;;12.55;68.15;99924.91;6193017;23;20028;-87
2020/12/20 11:16:55;;;;;;;11.85;6.95;;;;;;;12.55;67.62;99917.00;6193740;23;20016;-86
2020/12/20 11:19:22;;;;;;;9.50;6.82;;;;;;;12.60;67.85;99916.72;6191455;23;20044;-87
2020/12/20 11:21:52;;;;;;;9.52;7.38;;;;;;;12.59;67.43;99915.00;6195431;23;20443;-86
2020/12/20 11:24:20;;;;;;;11.63;7.30;;;;;;;12.61;67.69;99913.13;6192775;23;20021;-86
2020/12/20 11:26:48;;;;;;;9.23;6.75;;;;;;;12.61;67.57;99910.47;6192869;23;20024;-86
2020/12/20 11:29:19;;;;;;;8.93;7.13;;;;;;;12.61;67.78;99906.06;6218115;23;20023;-86
2020/12/20 11:31:48;;;;;;;7.80;6.20;;;;;;;12.63;67.88;99913.84;6192616;23;20077;-86
2020/12/20 11:34:22;;;;;;;9.55;6.65;;;;;;;12.63;67.40;99905.94;6220636;23;20020;-86
2020/12/20 11:36:48;;;;;;;10.88;7.03;;;;;;;12.66;67.82;99905.75;6191863;23;20021;-86
2020/12/20 11:39:16;;;;;;;9.90;6.55;;;;;;;12.67;67.59;99906.63;6193181;23;20024;-85
2020/12/20 11:42:03;;;;;;;12.05;7.47;;;;;;;12.63;67.13;99914.72;6195703;23;20025;-86